Página principal
METAR-TAF:

METAR-TAF

Aeroportos :

Teerã, Irão

Aeroporto Internacional de Mehrabad

latitude: 35-41N, longitude: 051-21E, altura: 1204 m

Observação actual do tempo

O boletim foi feito há 34 minutos, às 14:30 UTC
Vento 10 kt de oeste
Temperatura 7°C
Humidade 33%
Pressão 1018 hPa
Visibilidade 10 km ou mais
Nuvens dispersasa uma altura de 4000 ft

METAR: OIII 161430Z 27010KT 9999 SCT040 07/M08 Q1017 A3005 NOSIG

Hora: 18:34 (15:04 UTC)

Previsão

O boletim foi feito há 4 horas e 4 minutos, às 11:00 UTC
Previsão válida de 16 às 12 UTC a 17 às 18 UTC
Vento 8 kt de sul
Visibilidade: 8000 m
Poucas nuvensa uma altura de 4000 ft
Temporariamente
de 16 às 17 UTC a 17 às 04 UTC
Poucas nuvensa uma altura de 3500 ft, Cumulonimbus.
Nuvens dispersasa uma altura de 4000 ft
Nuvens fragmentadasa uma altura de 10000 ft

TAF: OIII 161100Z 1612/1718 18004MPS 8000 FEW040 TEMPO 1617/1704 FEW035CB SCT040 BKN100

Observações e previsões do tempo de mais de 4000 aeroportos (mensagens METAR e TAF).

As estações disponíveis são os pontos amarelos e vermelhos sobre o mapa.

Mova o rato sobre o mapa para ver o nome da estação.

Depois clique no ponto para visualizar as observações e previsões meteorológicas.

Para alterar o mapa : clique nos botões verdes com uma cruz preta para aumentar o zoom; no botão verde com uma pitada de zoom; ou nas setas verdes para mapas adjacentes.


METAR-TAF: